Airport Name : Rabil

Other Name : Rabil

ICAO : GVBA

IATA : BVC

FAA :

Latitude : 16.136531

Longitude : -22.888897

Country : Cape Verde

Local Date and Time : 9/26/2018 11:52:00 AM

 

TAF (Terminal Aerodrome Forecast)

TAF GVBA 261100Z 2612/2718 06010KT 9999 BKN014 PROB30 TEMPO 2612/2618 8000 -RADZ SCT012 BKN016 BECMG 2702/2704 VRB02KT

 

METAR (METeorological Aerodrome Report)

GVBA 261200Z 12010KT 9999 FEW010 BKN014 BKN100 30/23 Q1014 NOSIG

GVBA 261100Z 09007KT 9999 FEW010 SCT014 BKN100 29/24 Q1013 NOSIG

GVBA 261000Z 08008KT 9999 FEW010 BKN014 BKN100 28/25 Q1013 NOSIG

GVBA 260900Z 07003KT 9999 FEW010 SCT100 26/24 Q1013 NOSIG